sensor_id;sensor_type;location;lat;lon;timestamp;P1;durP1;ratioP1;P2;durP2;ratioP2
40955;SDS011;26687;48.254;11.454;2023-10-31T00:02:46;1.30;;;1.20;;
40955;SDS011;26687;48.254;11.454;2023-10-31T00:05:46;1.35;;;0.90;;
40955;SDS011;26687;48.254;11.454;2023-10-31T00:08:46;1.10;;;0.70;;
40955;SDS011;26687;48.254;11.454;2023-10-31T00:11:46;0.80;;;0.80;;
40955;SDS011;26687;48.254;11.454;2023-10-31T00:14:47;0.50;;;0.50;;
40955;SDS011;26687;48.254;11.454;2023-10-31T00:17:47;1.42;;;0.73;;
40955;SDS011;26687;48.254;11.454;2023-10-31T00:20:47;0.43;;;0.40;;
40955;SDS011;26687;48.254;11.454;2023-10-31T00:23:48;0.40;;;0.30;;
40955;SDS011;26687;48.254;11.454;2023-10-31T00:26:48;1.42;;;0.30;;
40955;SDS011;26687;48.254;11.454;2023-10-31T00:29:48;0.10;;;0.10;;
40955;SDS011;26687;48.254;11.454;2023-10-31T00:32:48;1.00;;;0.20;;
40955;SDS011;26687;48.254;11.454;2023-10-31T00:35:48;0.33;;;0.10;;
40955;SDS011;26687;48.254;11.454;2023-10-31T00:38:48;0.20;;;0.20;;
40955;SDS011;26687;48.254;11.454;2023-10-31T00:41:49;0.10;;;0.10;;
40955;SDS011;26687;48.254;11.454;2023-10-31T00:44:49;0.03;;;0.00;;
40955;SDS011;26687;48.254;11.454;2023-10-31T00:47:49;0.13;;;0.10;;
40955;SDS011;26687;48.254;11.454;2023-10-31T00:50:49;0.23;;;0.10;;
40955;SDS011;26687;48.254;11.454;2023-10-31T00:53:49;0.20;;;0.10;;
40955;SDS011;26687;48.254;11.454;2023-10-31T00:56:50;0.47;;;0.10;;
40955;SDS011;26687;48.254;11.454;2023-10-31T00:59:50;1.97;;;0.17;;
40955;SDS011;26687;48.254;11.454;2023-10-31T01:02:50;2.65;;;0.10;;
40955;SDS011;26687;48.254;11.454;2023-10-31T01:05:50;0.20;;;0.10;;
40955;SDS011;26687;48.254;11.454;2023-10-31T01:08:50;0.10;;;0.00;;
40955;SDS011;26687;48.254;11.454;2023-10-31T01:11:51;0.57;;;0.10;;
40955;SDS011;26687;48.254;11.454;2023-10-31T01:14:51;0.75;;;0.10;;
40955;SDS011;26687;48.254;11.454;2023-10-31T01:17:51;0.10;;;0.10;;
40955;SDS011;26687;48.254;11.454;2023-10-31T01:20:51;0.10;;;0.00;;
40955;SDS011;26687;48.254;11.454;2023-10-31T01:23:51;0.30;;;0.10;;
40955;SDS011;26687;48.254;11.454;2023-10-31T01:26:51;0.10;;;0.10;;
40955;SDS011;26687;48.254;11.454;2023-10-31T01:29:52;0.00;;;0.00;;
40955;SDS011;26687;48.254;11.454;2023-10-31T01:32:52;0.17;;;0.05;;
40955;SDS011;26687;48.254;11.454;2023-10-31T01:35:52;0.50;;;0.20;;
40955;SDS011;26687;48.254;11.454;2023-10-31T01:38:52;0.10;;;0.00;;
40955;SDS011;26687;48.254;11.454;2023-10-31T01:41:52;0.15;;;0.10;;
40955;SDS011;26687;48.254;11.454;2023-10-31T01:44:54;1.00;;;0.10;;
40955;SDS011;26687;48.254;11.454;2023-10-31T01:47:54;0.00;;;0.00;;
40955;SDS011;26687;48.254;11.454;2023-10-31T01:50:55;0.00;;;0.00;;
40955;SDS011;26687;48.254;11.454;2023-10-31T01:53:56;0.10;;;0.00;;
40955;SDS011;26687;48.254;11.454;2023-10-31T01:56:57;0.10;;;0.00;;
40955;SDS011;26687;48.254;11.454;2023-10-31T01:59:58;0.13;;;0.00;;
40955;SDS011;26687;48.254;11.454;2023-10-31T02:02:58;0.10;;;0.00;;
40955;SDS011;26687;48.254;11.454;2023-10-31T02:05:59;0.75;;;0.10;;
40955;SDS011;26687;48.254;11.454;2023-10-31T02:08:59;0.10;;;0.00;;
40955;SDS011;26687;48.254;11.454;2023-10-31T02:11:59;0.00;;;0.00;;
40955;SDS011;26687;48.254;11.454;2023-10-31T02:14:59;0.05;;;0.00;;
40955;SDS011;26687;48.254;11.454;2023-10-31T02:17:59;0.30;;;0.00;;
40955;SDS011;26687;48.254;11.454;2023-10-31T02:21:00;0.30;;;0.00;;
40955;SDS011;26687;48.254;11.454;2023-10-31T02:24:03;0.27;;;0.00;;
40955;SDS011;26687;48.254;11.454;2023-10-31T02:27:03;0.17;;;0.00;;
40955;SDS011;26687;48.254;11.454;2023-10-31T02:30:03;0.00;;;0.00;;
40955;SDS011;26687;48.254;11.454;2023-10-31T02:33:04;0.30;;;0.00;;
40955;SDS011;26687;48.254;11.454;2023-10-31T02:36:04;0.40;;;0.10;;
40955;SDS011;26687;48.254;11.454;2023-10-31T02:39:04;0.73;;;0.10;;
40955;SDS011;26687;48.254;11.454;2023-10-31T02:42:04;0.20;;;0.03;;
40955;SDS011;26687;48.254;11.454;2023-10-31T02:45:05;0.10;;;0.10;;
40955;SDS011;26687;48.254;11.454;2023-10-31T02:48:05;0.10;;;0.00;;
40955;SDS011;26687;48.254;11.454;2023-10-31T02:51:06;0.10;;;0.00;;
40955;SDS011;26687;48.254;11.454;2023-10-31T02:54:07;0.75;;;0.10;;
40955;SDS011;26687;48.254;11.454;2023-10-31T02:57:07;0.10;;;0.00;;
40955;SDS011;26687;48.254;11.454;2023-10-31T03:00:07;0.45;;;0.00;;
40955;SDS011;26687;48.254;11.454;2023-10-31T03:03:08;1.13;;;0.10;;
40955;SDS011;26687;48.254;11.454;2023-10-31T03:06:08;0.00;;;0.00;;
40955;SDS011;26687;48.254;11.454;2023-10-31T03:09:08;0.35;;;0.00;;
40955;SDS011;26687;48.254;11.454;2023-10-31T03:12:08;1.27;;;0.08;;
40955;SDS011;26687;48.254;11.454;2023-10-31T03:15:08;0.30;;;0.00;;
40955;SDS011;26687;48.254;11.454;2023-10-31T03:18:09;0.40;;;0.03;;
40955;SDS011;26687;48.254;11.454;2023-10-31T03:21:09;0.10;;;0.10;;
40955;SDS011;26687;48.254;11.454;2023-10-31T03:24:09;0.65;;;0.10;;
40955;SDS011;26687;48.254;11.454;2023-10-31T03:27:09;0.65;;;0.10;;
40955;SDS011;26687;48.254;11.454;2023-10-31T03:30:09;0.00;;;0.00;;
40955;SDS011;26687;48.254;11.454;2023-10-31T03:33:10;0.20;;;0.10;;
40955;SDS011;26687;48.254;11.454;2023-10-31T03:36:10;1.15;;;0.00;;
40955;SDS011;26687;48.254;11.454;2023-10-31T03:39:10;1.38;;;0.05;;
40955;SDS011;26687;48.254;11.454;2023-10-31T03:42:10;0.47;;;0.10;;
40955;SDS011;26687;48.254;11.454;2023-10-31T03:45:11;0.13;;;0.13;;
40955;SDS011;26687;48.254;11.454;2023-10-31T03:48:11;0.63;;;0.17;;
40955;SDS011;26687;48.254;11.454;2023-10-31T03:51:11;1.00;;;0.10;;
40955;SDS011;26687;48.254;11.454;2023-10-31T03:54:11;0.10;;;0.00;;
40955;SDS011;26687;48.254;11.454;2023-10-31T03:57:12;0.47;;;0.17;;
40955;SDS011;26687;48.254;11.454;2023-10-31T04:00:13;0.20;;;0.10;;
40955;SDS011;26687;48.254;11.454;2023-10-31T04:03:13;0.00;;;0.00;;
40955;SDS011;26687;48.254;11.454;2023-10-31T04:06:13;0.30;;;0.20;;
40955;SDS011;26687;48.254;11.454;2023-10-31T04:09:14;1.67;;;0.20;;
40955;SDS011;26687;48.254;11.454;2023-10-31T04:12:14;0.30;;;0.20;;
40955;SDS011;26687;48.254;11.454;2023-10-31T04:15:14;1.13;;;0.20;;
40955;SDS011;26687;48.254;11.454;2023-10-31T04:18:14;0.28;;;0.20;;
40955;SDS011;26687;48.254;11.454;2023-10-31T04:21:14;0.75;;;0.32;;
40955;SDS011;26687;48.254;11.454;2023-10-31T04:24:14;0.77;;;0.32;;
40955;SDS011;26687;48.254;11.454;2023-10-31T04:27:15;1.45;;;0.15;;
40955;SDS011;26687;48.254;11.454;2023-10-31T04:30:15;0.30;;;0.20;;
40955;SDS011;26687;48.254;11.454;2023-10-31T04:33:15;0.73;;;0.13;;
40955;SDS011;26687;48.254;11.454;2023-10-31T04:36:15;1.13;;;0.10;;
40955;SDS011;26687;48.254;11.454;2023-10-31T04:39:15;0.43;;;0.10;;
40955;SDS011;26687;48.254;11.454;2023-10-31T04:42:16;0.82;;;0.17;;
40955;SDS011;26687;48.254;11.454;2023-10-31T04:45:16;0.77;;;0.10;;
40955;SDS011;26687;48.254;11.454;2023-10-31T04:48:16;0.20;;;0.00;;
40955;SDS011;26687;48.254;11.454;2023-10-31T04:51:16;1.02;;;0.10;;
40955;SDS011;26687;48.254;11.454;2023-10-31T04:54:16;0.40;;;0.10;;
40955;SDS011;26687;48.254;11.454;2023-10-31T04:57:17;0.30;;;0.20;;
40955;SDS011;26687;48.254;11.454;2023-10-31T05:00:17;0.55;;;0.20;;
40955;SDS011;26687;48.254;11.454;2023-10-31T05:03:17;0.37;;;0.10;;
40955;SDS011;26687;48.254;11.454;2023-10-31T05:06:21;0.50;;;0.20;;
40955;SDS011;26687;48.254;11.454;2023-10-31T05:09:21;0.65;;;0.20;;
40955;SDS011;26687;48.254;11.454;2023-10-31T05:12:23;0.65;;;0.20;;
40955;SDS011;26687;48.254;11.454;2023-10-31T05:15:24;1.35;;;0.38;;
40955;SDS011;26687;48.254;11.454;2023-10-31T05:18:24;0.50;;;0.20;;
40955;SDS011;26687;48.254;11.454;2023-10-31T05:21:24;0.33;;;0.20;;
40955;SDS011;26687;48.254;11.454;2023-10-31T05:24:25;0.93;;;0.35;;
40955;SDS011;26687;48.254;11.454;2023-10-31T05:27:26;0.40;;;0.17;;
40955;SDS011;26687;48.254;11.454;2023-10-31T05:30:26;0.20;;;0.10;;
40955;SDS011;26687;48.254;11.454;2023-10-31T05:33:27;0.27;;;0.10;;
40955;SDS011;26687;48.254;11.454;2023-10-31T05:36:27;0.10;;;0.10;;
40955;SDS011;26687;48.254;11.454;2023-10-31T05:39:28;0.35;;;0.10;;
40955;SDS011;26687;48.254;11.454;2023-10-31T05:42:28;0.98;;;0.30;;
40955;SDS011;26687;48.254;11.454;2023-10-31T05:45:28;0.73;;;0.30;;
40955;SDS011;26687;48.254;11.454;2023-10-31T05:48:28;0.30;;;0.20;;
40955;SDS011;26687;48.254;11.454;2023-10-31T05:51:30;0.63;;;0.20;;
40955;SDS011;26687;48.254;11.454;2023-10-31T05:54:30;0.80;;;0.30;;
40955;SDS011;26687;48.254;11.454;2023-10-31T05:57:30;1.10;;;0.40;;
40955;SDS011;26687;48.254;11.454;2023-10-31T06:00:30;1.35;;;0.30;;
40955;SDS011;26687;48.254;11.454;2023-10-31T06:03:31;1.42;;;0.30;;
40955;SDS011;26687;48.254;11.454;2023-10-31T06:06:32;0.65;;;0.20;;
40955;SDS011;26687;48.254;11.454;2023-10-31T06:09:32;0.40;;;0.30;;
40955;SDS011;26687;48.254;11.454;2023-10-31T06:12:35;0.90;;;0.20;;
40955;SDS011;26687;48.254;11.454;2023-10-31T06:15:35;2.03;;;0.40;;
40955;SDS011;26687;48.254;11.454;2023-10-31T06:18:35;1.27;;;0.30;;
40955;SDS011;26687;48.254;11.454;2023-10-31T06:21:35;0.55;;;0.30;;
40955;SDS011;26687;48.254;11.454;2023-10-31T06:24:36;1.02;;;0.30;;
40955;SDS011;26687;48.254;11.454;2023-10-31T06:27:36;0.93;;;0.30;;
40955;SDS011;26687;48.254;11.454;2023-10-31T06:30:36;0.83;;;0.40;;
40955;SDS011;26687;48.254;11.454;2023-10-31T06:33:36;1.17;;;0.40;;
40955;SDS011;26687;48.254;11.454;2023-10-31T06:36:36;0.50;;;0.20;;
40955;SDS011;26687;48.254;11.454;2023-10-31T06:39:37;1.43;;;0.37;;
40955;SDS011;26687;48.254;11.454;2023-10-31T06:42:37;0.60;;;0.30;;
40955;SDS011;26687;48.254;11.454;2023-10-31T06:45:38;2.80;;;0.40;;
40955;SDS011;26687;48.254;11.454;2023-10-31T06:48:38;1.02;;;0.47;;
40955;SDS011;26687;48.254;11.454;2023-10-31T06:51:38;1.30;;;0.70;;
40955;SDS011;26687;48.254;11.454;2023-10-31T06:54:39;1.73;;;0.50;;
40955;SDS011;26687;48.254;11.454;2023-10-31T06:57:39;1.13;;;0.50;;
40955;SDS011;26687;48.254;11.454;2023-10-31T07:00:39;1.70;;;0.30;;
40955;SDS011;26687;48.254;11.454;2023-10-31T07:03:39;0.50;;;0.20;;
40955;SDS011;26687;48.254;11.454;2023-10-31T07:06:40;1.73;;;0.65;;
40955;SDS011;26687;48.254;11.454;2023-10-31T07:09:40;0.70;;;0.50;;
40955;SDS011;26687;48.254;11.454;2023-10-31T07:12:40;2.17;;;1.00;;
40955;SDS011;26687;48.254;11.454;2023-10-31T07:15:40;0.90;;;0.52;;
40955;SDS011;26687;48.254;11.454;2023-10-31T07:18:40;1.27;;;0.38;;
40955;SDS011;26687;48.254;11.454;2023-10-31T07:21:41;1.02;;;0.30;;
40955;SDS011;26687;48.254;11.454;2023-10-31T07:24:41;0.95;;;0.30;;
40955;SDS011;26687;48.254;11.454;2023-10-31T07:27:41;1.27;;;0.40;;
40955;SDS011;26687;48.254;11.454;2023-10-31T07:30:41;0.60;;;0.30;;
40955;SDS011;26687;48.254;11.454;2023-10-31T07:33:43;0.75;;;0.40;;
40955;SDS011;26687;48.254;11.454;2023-10-31T07:36:43;1.63;;;0.40;;
40955;SDS011;26687;48.254;11.454;2023-10-31T07:39:43;0.50;;;0.40;;
40955;SDS011;26687;48.254;11.454;2023-10-31T07:42:44;1.17;;;0.40;;
40955;SDS011;26687;48.254;11.454;2023-10-31T07:45:44;1.93;;;0.33;;
40955;SDS011;26687;48.254;11.454;2023-10-31T07:48:44;0.82;;;0.32;;
40955;SDS011;26687;48.254;11.454;2023-10-31T07:51:44;0.93;;;0.40;;
40955;SDS011;26687;48.254;11.454;2023-10-31T07:54:44;0.82;;;0.40;;
40955;SDS011;26687;48.254;11.454;2023-10-31T07:57:44;1.83;;;0.40;;
40955;SDS011;26687;48.254;11.454;2023-10-31T08:00:45;0.93;;;0.20;;
40955;SDS011;26687;48.254;11.454;2023-10-31T08:03:45;1.30;;;0.30;;
40955;SDS011;26687;48.254;11.454;2023-10-31T08:06:46;0.60;;;0.40;;
40955;SDS011;26687;48.254;11.454;2023-10-31T08:09:47;0.37;;;0.30;;
40955;SDS011;26687;48.254;11.454;2023-10-31T08:12:47;2.10;;;0.60;;
40955;SDS011;26687;48.254;11.454;2023-10-31T08:15:47;4.47;;;0.60;;
40955;SDS011;26687;48.254;11.454;2023-10-31T08:18:48;4.07;;;0.60;;
40955;SDS011;26687;48.254;11.454;2023-10-31T08:21:48;1.52;;;0.35;;
40955;SDS011;26687;48.254;11.454;2023-10-31T08:24:49;0.88;;;0.30;;
40955;SDS011;26687;48.254;11.454;2023-10-31T08:27:49;1.60;;;0.40;;
40955;SDS011;26687;48.254;11.454;2023-10-31T08:30:49;1.00;;;0.30;;
40955;SDS011;26687;48.254;11.454;2023-10-31T08:33:49;0.80;;;0.27;;
40955;SDS011;26687;48.254;11.454;2023-10-31T08:36:50;2.05;;;0.43;;
40955;SDS011;26687;48.254;11.454;2023-10-31T08:39:52;0.80;;;0.40;;
40955;SDS011;26687;48.254;11.454;2023-10-31T08:42:52;1.15;;;0.55;;
40955;SDS011;26687;48.254;11.454;2023-10-31T08:45:53;0.88;;;0.30;;
40955;SDS011;26687;48.254;11.454;2023-10-31T08:48:53;1.42;;;0.47;;
40955;SDS011;26687;48.254;11.454;2023-10-31T08:51:54;2.25;;;0.45;;
40955;SDS011;26687;48.254;11.454;2023-10-31T08:54:54;1.13;;;0.57;;
40955;SDS011;26687;48.254;11.454;2023-10-31T08:57:54;3.03;;;0.50;;
40955;SDS011;26687;48.254;11.454;2023-10-31T09:00:54;1.20;;;0.47;;
40955;SDS011;26687;48.254;11.454;2023-10-31T09:03:54;2.63;;;0.63;;
40955;SDS011;26687;48.254;11.454;2023-10-31T09:06:54;1.77;;;0.50;;
40955;SDS011;26687;48.254;11.454;2023-10-31T09:09:55;0.90;;;0.40;;
40955;SDS011;26687;48.254;11.454;2023-10-31T09:12:55;1.10;;;0.40;;
40955;SDS011;26687;48.254;11.454;2023-10-31T09:15:55;2.27;;;0.50;;
40955;SDS011;26687;48.254;11.454;2023-10-31T09:18:55;3.00;;;0.50;;
40955;SDS011;26687;48.254;11.454;2023-10-31T09:21:55;0.70;;;0.40;;
40955;SDS011;26687;48.254;11.454;2023-10-31T09:24:55;2.25;;;0.73;;
40955;SDS011;26687;48.254;11.454;2023-10-31T09:27:56;1.70;;;0.50;;
40955;SDS011;26687;48.254;11.454;2023-10-31T09:30:58;1.42;;;0.50;;
40955;SDS011;26687;48.254;11.454;2023-10-31T09:34:01;1.00;;;0.40;;
40955;SDS011;26687;48.254;11.454;2023-10-31T09:37:03;3.23;;;0.60;;
40955;SDS011;26687;48.254;11.454;2023-10-31T09:40:03;1.15;;;0.40;;
40955;SDS011;26687;48.254;11.454;2023-10-31T09:43:04;2.72;;;0.60;;
40955;SDS011;26687;48.254;11.454;2023-10-31T09:46:05;4.18;;;0.63;;
40955;SDS011;26687;48.254;11.454;2023-10-31T09:49:05;1.80;;;0.40;;
40955;SDS011;26687;48.254;11.454;2023-10-31T09:52:05;1.73;;;0.40;;
40955;SDS011;26687;48.254;11.454;2023-10-31T09:55:07;1.05;;;0.40;;
40955;SDS011;26687;48.254;11.454;2023-10-31T09:58:08;1.92;;;0.50;;
40955;SDS011;26687;48.254;11.454;2023-10-31T10:01:08;1.67;;;0.50;;
40955;SDS011;26687;48.254;11.454;2023-10-31T10:04:09;2.60;;;0.80;;
40955;SDS011;26687;48.254;11.454;2023-10-31T10:07:12;1.13;;;0.38;;
40955;SDS011;26687;48.254;11.454;2023-10-31T10:10:13;1.23;;;0.32;;
40955;SDS011;26687;48.254;11.454;2023-10-31T10:13:13;1.30;;;0.40;;
40955;SDS011;26687;48.254;11.454;2023-10-31T10:16:27;1.55;;;0.47;;
40955;SDS011;26687;48.254;11.454;2023-10-31T10:19:27;1.48;;;0.40;;
40955;SDS011;26687;48.254;11.454;2023-10-31T10:22:28;1.50;;;0.47;;
40955;SDS011;26687;48.254;11.454;2023-10-31T10:25:28;2.58;;;0.60;;
40955;SDS011;26687;48.254;11.454;2023-10-31T10:28:29;1.97;;;0.50;;
40955;SDS011;26687;48.254;11.454;2023-10-31T10:31:29;3.22;;;0.68;;
40955;SDS011;26687;48.254;11.454;2023-10-31T10:34:29;0.90;;;0.30;;
40955;SDS011;26687;48.254;11.454;2023-10-31T10:37:31;0.77;;;0.30;;
40955;SDS011;26687;48.254;11.454;2023-10-31T10:40:31;2.40;;;0.83;;
40955;SDS011;26687;48.254;11.454;2023-10-31T10:43:31;1.10;;;0.38;;
40955;SDS011;26687;48.254;11.454;2023-10-31T10:46:36;1.38;;;0.50;;
40955;SDS011;26687;48.254;11.454;2023-10-31T10:49:36;2.10;;;0.70;;
40955;SDS011;26687;48.254;11.454;2023-10-31T10:52:38;1.05;;;0.60;;
40955;SDS011;26687;48.254;11.454;2023-10-31T10:55:44;3.58;;;0.68;;
40955;SDS011;26687;48.254;11.454;2023-10-31T10:58:51;1.50;;;0.52;;
40955;SDS011;26687;48.254;11.454;2023-10-31T11:01:52;1.45;;;0.50;;
40955;SDS011;26687;48.254;11.454;2023-10-31T11:04:53;2.65;;;0.50;;
40955;SDS011;26687;48.254;11.454;2023-10-31T11:07:53;1.42;;;0.30;;
40955;SDS011;26687;48.254;11.454;2023-10-31T11:10:55;1.60;;;0.40;;
40955;SDS011;26687;48.254;11.454;2023-10-31T11:13:55;0.93;;;0.32;;
40955;SDS011;26687;48.254;11.454;2023-10-31T11:16:58;2.25;;;0.65;;
40955;SDS011;26687;48.254;11.454;2023-10-31T11:20:00;2.30;;;0.70;;
40955;SDS011;26687;48.254;11.454;2023-10-31T11:23:00;3.80;;;0.68;;
40955;SDS011;26687;48.254;11.454;2023-10-31T11:26:05;2.38;;;0.65;;
40955;SDS011;26687;48.254;11.454;2023-10-31T11:29:08;1.77;;;0.38;;
40955;SDS011;26687;48.254;11.454;2023-10-31T11:32:10;1.77;;;0.55;;
40955;SDS011;26687;48.254;11.454;2023-10-31T11:35:10;1.98;;;0.50;;
40955;SDS011;26687;48.254;11.454;2023-10-31T11:38:12;0.95;;;0.45;;
40955;SDS011;26687;48.254;11.454;2023-10-31T11:41:12;1.02;;;0.43;;
40955;SDS011;26687;48.254;11.454;2023-10-31T11:44:12;2.47;;;0.40;;
40955;SDS011;26687;48.254;11.454;2023-10-31T11:47:17;1.35;;;0.40;;
40955;SDS011;26687;48.254;11.454;2023-10-31T11:50:17;1.15;;;0.50;;
40955;SDS011;26687;48.254;11.454;2023-10-31T11:53:18;4.15;;;0.60;;
40955;SDS011;26687;48.254;11.454;2023-10-31T11:56:18;2.70;;;0.40;;
40955;SDS011;26687;48.254;11.454;2023-10-31T11:59:19;2.58;;;0.85;;
40955;SDS011;26687;48.254;11.454;2023-10-31T12:02:19;2.20;;;0.60;;
40955;SDS011;26687;48.254;11.454;2023-10-31T12:05:20;2.05;;;0.35;;
40955;SDS011;26687;48.254;11.454;2023-10-31T12:08:27;2.08;;;0.47;;
40955;SDS011;26687;48.254;11.454;2023-10-31T12:11:28;1.20;;;0.50;;
40955;SDS011;26687;48.254;11.454;2023-10-31T12:14:28;3.27;;;0.70;;
40955;SDS011;26687;48.254;11.454;2023-10-31T12:17:28;1.35;;;0.55;;
40955;SDS011;26687;48.254;11.454;2023-10-31T12:20:28;2.78;;;0.50;;
40955;SDS011;26687;48.254;11.454;2023-10-31T12:23:28;2.08;;;0.50;;
40955;SDS011;26687;48.254;11.454;2023-10-31T12:26:29;1.83;;;0.30;;
40955;SDS011;26687;48.254;11.454;2023-10-31T12:29:29;1.23;;;0.50;;
40955;SDS011;26687;48.254;11.454;2023-10-31T12:32:29;1.65;;;0.30;;
40955;SDS011;26687;48.254;11.454;2023-10-31T12:35:29;1.53;;;0.33;;
40955;SDS011;26687;48.254;11.454;2023-10-31T12:38:29;3.25;;;0.45;;
40955;SDS011;26687;48.254;11.454;2023-10-31T12:41:30;2.05;;;0.40;;
40955;SDS011;26687;48.254;11.454;2023-10-31T12:44:31;1.88;;;0.50;;
40955;SDS011;26687;48.254;11.454;2023-10-31T12:47:32;1.23;;;0.43;;
40955;SDS011;26687;48.254;11.454;2023-10-31T12:50:32;1.58;;;0.45;;
40955;SDS011;26687;48.254;11.454;2023-10-31T12:53:33;1.38;;;0.40;;
40955;SDS011;26687;48.254;11.454;2023-10-31T12:56:34;2.17;;;0.65;;
40955;SDS011;26687;48.254;11.454;2023-10-31T12:59:35;1.25;;;0.47;;
40955;SDS011;26687;48.254;11.454;2023-10-31T13:02:36;3.83;;;0.50;;
40955;SDS011;26687;48.254;11.454;2023-10-31T13:05:36;2.20;;;0.40;;
40955;SDS011;26687;48.254;11.454;2023-10-31T13:08:38;0.98;;;0.40;;
40955;SDS011;26687;48.254;11.454;2023-10-31T13:11:39;1.73;;;0.40;;
40955;SDS011;26687;48.254;11.454;2023-10-31T13:14:39;1.05;;;0.60;;
40955;SDS011;26687;48.254;11.454;2023-10-31T13:17:39;3.20;;;1.00;;
40955;SDS011;26687;48.254;11.454;2023-10-31T13:20:41;1.48;;;0.60;;
40955;SDS011;26687;48.254;11.454;2023-10-31T13:23:41;2.67;;;0.30;;
40955;SDS011;26687;48.254;11.454;2023-10-31T13:26:45;0.60;;;0.40;;
40955;SDS011;26687;48.254;11.454;2023-10-31T13:29:51;1.55;;;0.40;;
40955;SDS011;26687;48.254;11.454;2023-10-31T13:32:51;0.73;;;0.20;;
40955;SDS011;26687;48.254;11.454;2023-10-31T13:35:52;1.10;;;0.20;;
40955;SDS011;26687;48.254;11.454;2023-10-31T13:38:52;0.47;;;0.20;;
40955;SDS011;26687;48.254;11.454;2023-10-31T13:41:53;2.08;;;0.45;;
40955;SDS011;26687;48.254;11.454;2023-10-31T13:44:53;1.92;;;0.30;;
40955;SDS011;26687;48.254;11.454;2023-10-31T13:47:53;0.60;;;0.20;;
40955;SDS011;26687;48.254;11.454;2023-10-31T13:50:53;1.08;;;0.35;;
40955;SDS011;26687;48.254;11.454;2023-10-31T13:53:53;2.45;;;0.40;;
40955;SDS011;26687;48.254;11.454;2023-10-31T13:56:53;2.05;;;0.40;;
40955;SDS011;26687;48.254;11.454;2023-10-31T13:59:54;1.30;;;0.50;;
40955;SDS011;26687;48.254;11.454;2023-10-31T14:02:54;2.95;;;0.38;;
40955;SDS011;26687;48.254;11.454;2023-10-31T14:05:54;2.63;;;0.43;;
40955;SDS011;26687;48.254;11.454;2023-10-31T14:08:55;0.68;;;0.30;;
40955;SDS011;26687;48.254;11.454;2023-10-31T14:11:56;0.90;;;0.20;;
40955;SDS011;26687;48.254;11.454;2023-10-31T14:14:57;1.23;;;0.38;;
40955;SDS011;26687;48.254;11.454;2023-10-31T14:17:57;0.83;;;0.20;;
40955;SDS011;26687;48.254;11.454;2023-10-31T14:20:57;0.68;;;0.28;;
40955;SDS011;26687;48.254;11.454;2023-10-31T14:23:57;0.25;;;0.20;;
40955;SDS011;26687;48.254;11.454;2023-10-31T14:26:58;1.43;;;0.50;;
40955;SDS011;26687;48.254;11.454;2023-10-31T14:29:59;0.40;;;0.22;;
40955;SDS011;26687;48.254;11.454;2023-10-31T14:32:59;0.80;;;0.40;;
40955;SDS011;26687;48.254;11.454;2023-10-31T14:35:59;1.30;;;0.40;;
40955;SDS011;26687;48.254;11.454;2023-10-31T14:39:00;1.55;;;0.50;;
40955;SDS011;26687;48.254;11.454;2023-10-31T14:42:00;1.58;;;0.40;;
40955;SDS011;26687;48.254;11.454;2023-10-31T14:45:00;0.35;;;0.30;;
40955;SDS011;26687;48.254;11.454;2023-10-31T14:48:00;1.15;;;0.50;;
40955;SDS011;26687;48.254;11.454;2023-10-31T14:51:01;0.67;;;0.30;;
40955;SDS011;26687;48.254;11.454;2023-10-31T14:54:02;1.25;;;0.30;;
40955;SDS011;26687;48.254;11.454;2023-10-31T14:57:02;0.98;;;0.60;;
40955;SDS011;26687;48.254;11.454;2023-10-31T15:00:03;0.93;;;0.47;;
40955;SDS011;26687;48.254;11.454;2023-10-31T15:03:03;1.35;;;0.60;;
40955;SDS011;26687;48.254;11.454;2023-10-31T15:06:04;1.55;;;0.47;;
40955;SDS011;26687;48.254;11.454;2023-10-31T15:09:04;1.25;;;0.43;;
40955;SDS011;26687;48.254;11.454;2023-10-31T15:12:04;0.83;;;0.50;;
40955;SDS011;26687;48.254;11.454;2023-10-31T15:15:05;1.35;;;0.60;;
40955;SDS011;26687;48.254;11.454;2023-10-31T15:18:06;1.48;;;0.40;;
40955;SDS011;26687;48.254;11.454;2023-10-31T15:21:06;3.95;;;0.65;;
40955;SDS011;26687;48.254;11.454;2023-10-31T15:24:06;0.77;;;0.60;;
40955;SDS011;26687;48.254;11.454;2023-10-31T15:27:09;0.75;;;0.50;;
40955;SDS011;26687;48.254;11.454;2023-10-31T15:30:09;1.23;;;0.60;;
40955;SDS011;26687;48.254;11.454;2023-10-31T15:33:09;1.20;;;0.57;;
40955;SDS011;26687;48.254;11.454;2023-10-31T15:36:10;0.80;;;0.50;;
40955;SDS011;26687;48.254;11.454;2023-10-31T15:39:11;1.50;;;0.60;;
40955;SDS011;26687;48.254;11.454;2023-10-31T15:42:12;1.60;;;0.52;;
40955;SDS011;26687;48.254;11.454;2023-10-31T15:45:12;2.70;;;0.55;;
40955;SDS011;26687;48.254;11.454;2023-10-31T15:48:13;1.30;;;0.53;;
40955;SDS011;26687;48.254;11.454;2023-10-31T15:51:13;1.40;;;0.80;;
40955;SDS011;26687;48.254;11.454;2023-10-31T15:54:14;2.35;;;0.80;;
40955;SDS011;26687;48.254;11.454;2023-10-31T15:57:14;1.70;;;0.70;;
40955;SDS011;26687;48.254;11.454;2023-10-31T16:00:20;2.95;;;0.80;;
40955;SDS011;26687;48.254;11.454;2023-10-31T16:03:20;2.87;;;0.80;;
40955;SDS011;26687;48.254;11.454;2023-10-31T16:06:21;1.35;;;0.93;;
40955;SDS011;26687;48.254;11.454;2023-10-31T16:09:21;2.85;;;1.00;;
40955;SDS011;26687;48.254;11.454;2023-10-31T16:12:21;2.25;;;0.80;;
40955;SDS011;26687;48.254;11.454;2023-10-31T16:15:21;2.17;;;0.88;;
40955;SDS011;26687;48.254;11.454;2023-10-31T16:18:22;2.83;;;0.90;;
40955;SDS011;26687;48.254;11.454;2023-10-31T16:21:22;2.13;;;1.13;;
40955;SDS011;26687;48.254;11.454;2023-10-31T16:24:22;2.35;;;0.95;;
40955;SDS011;26687;48.254;11.454;2023-10-31T16:27:22;2.40;;;1.23;;
40955;SDS011;26687;48.254;11.454;2023-10-31T16:30:23;1.60;;;1.10;;
40955;SDS011;26687;48.254;11.454;2023-10-31T16:33:23;2.53;;;1.00;;
40955;SDS011;26687;48.254;11.454;2023-10-31T16:36:23;2.63;;;1.00;;
40955;SDS011;26687;48.254;11.454;2023-10-31T16:39:25;5.38;;;1.20;;
40955;SDS011;26687;48.254;11.454;2023-10-31T16:42:25;2.60;;;2.10;;
40955;SDS011;26687;48.254;11.454;2023-10-31T16:45:32;7.03;;;4.68;;
40955;SDS011;26687;48.254;11.454;2023-10-31T16:48:33;4.88;;;3.88;;
40955;SDS011;26687;48.254;11.454;2023-10-31T16:51:33;3.80;;;2.93;;
40955;SDS011;26687;48.254;11.454;2023-10-31T16:54:34;0.98;;;0.90;;
40955;SDS011;26687;48.254;11.454;2023-10-31T16:57:34;1.30;;;1.00;;
40955;SDS011;26687;48.254;11.454;2023-10-31T17:00:34;1.70;;;1.00;;
40955;SDS011;26687;48.254;11.454;2023-10-31T17:03:34;1.67;;;1.15;;
40955;SDS011;26687;48.254;11.454;2023-10-31T17:06:35;3.60;;;1.20;;
40955;SDS011;26687;48.254;11.454;2023-10-31T17:09:35;2.73;;;1.60;;
40955;SDS011;26687;48.254;11.454;2023-10-31T17:12:35;1.52;;;1.40;;
40955;SDS011;26687;48.254;11.454;2023-10-31T17:15:36;1.45;;;1.20;;
40955;SDS011;26687;48.254;11.454;2023-10-31T17:18:36;1.25;;;0.98;;
40955;SDS011;26687;48.254;11.454;2023-10-31T17:21:36;1.52;;;1.00;;
40955;SDS011;26687;48.254;11.454;2023-10-31T17:24:36;2.17;;;0.90;;
40955;SDS011;26687;48.254;11.454;2023-10-31T17:27:37;1.93;;;0.80;;
40955;SDS011;26687;48.254;11.454;2023-10-31T17:30:37;1.65;;;0.82;;
40955;SDS011;26687;48.254;11.454;2023-10-31T17:33:37;2.13;;;1.10;;
40955;SDS011;26687;48.254;11.454;2023-10-31T17:36:39;1.23;;;0.80;;
40955;SDS011;26687;48.254;11.454;2023-10-31T17:39:40;1.20;;;0.90;;
40955;SDS011;26687;48.254;11.454;2023-10-31T17:42:40;2.58;;;1.45;;
40955;SDS011;26687;48.254;11.454;2023-10-31T17:45:40;2.37;;;1.00;;
40955;SDS011;26687;48.254;11.454;2023-10-31T17:48:40;2.47;;;1.80;;
40955;SDS011;26687;48.254;11.454;2023-10-31T17:51:43;1.77;;;0.98;;